Time;durP1;ratioP1;P1;durP2;ratioP2;P2;SDS_P1;SDS_P2;PMS_P1;PMS_P2;Temp;Humidity;BMP_temperature;BMP_pressure;BME280_temperature;BME280_humidity;BME280_pressure;Samples;Min_cycle;Max_cycle;Signal;HPM_P1;HPM_P2
2022/06/10 00:02:16;;;;;;;0.00;0.00;;;;;;;;;;5028678;28;20058;-57
2022/06/10 00:04:43;;;;;;;0.00;0.00;;;;;;;;;;5011810;28;20519;-58
2022/06/10 00:07:09;;;;;;;0.00;0.00;;;;;;;;;;5008713;28;20881;-58
2022/06/10 00:09:36;;;;;;;0.00;0.00;;;;;;;;;;5018497;28;20108;-58
2022/06/10 00:12:09;;;;;;;0.00;0.00;;;;;;;;;;5028286;28;20050;-58
2022/06/10 00:14:35;;;;;;;0.35;0.35;;;;;;;;;;5028757;28;20085;-58
2022/06/10 00:17:02;;;;;;;0.00;0.00;;;;;;;;;;5028422;28;20524;-58
2022/06/10 00:19:28;;;;;;;0.00;0.00;;;;;;;;;;5019415;28;20055;-58
2022/06/10 00:21:55;;;;;;;0.00;0.00;;;;;;;;;;5008607;28;20082;-58
2022/06/10 00:24:21;;;;;;;0.00;0.00;;;;;;;;;;5008669;28;20488;-58
2022/06/10 00:26:47;;;;;;;0.00;0.00;;;;;;;;;;5009077;28;20058;-58
2022/06/10 00:29:14;;;;;;;0.00;0.00;;;;;;;;;;5011493;28;20054;-57
2022/06/10 00:31:40;;;;;;;0.00;0.00;;;;;;;;;;5015969;28;20140;-58
2022/06/10 00:34:06;;;;;;;0.00;0.00;;;;;;;;;;5008126;28;20055;-58
2022/06/10 00:36:33;;;;;;;0.00;0.00;;;;;;;;;;5008388;28;20117;-59
2022/06/10 00:38:59;;;;;;;0.00;0.00;;;;;;;;;;5009403;28;20109;-59
2022/06/10 00:41:25;;;;;;;0.00;0.00;;;;;;;;;;5007832;28;20050;-58
2022/06/10 00:43:52;;;;;;;0.00;0.00;;;;;;;;;;5008790;28;20141;-59
2022/06/10 00:46:20;;;;;;;0.00;0.00;;;;;;;;;;5008928;28;20548;-57
2022/06/10 00:48:49;;;;;;;0.00;0.00;;;;;;;;;;5021849;28;20137;-59
2022/06/10 00:51:34;;;;;;;0.00;0.00;;;;;;;;;;5017466;28;20053;-57
2022/06/10 00:54:13;;;;;;;0.00;0.00;;;;;;;;;;5027517;28;20050;-58
2022/06/10 00:56:41;;;;;;;0.00;0.00;;;;;;;;;;5030011;28;20057;-58
2022/06/10 00:59:12;;;;;;;0.00;0.00;;;;;;;;;;5031030;28;20062;-58
2022/06/10 01:01:40;;;;;;;0.00;0.00;;;;;;;;;;5016372;28;20082;-59
2022/06/10 01:04:08;;;;;;;0.00;0.00;;;;;;;;;;5011449;28;20081;-58
2022/06/10 01:06:34;;;;;;;0.00;0.00;;;;;;;;;;5012141;28;20113;-58
2022/06/10 01:09:02;;;;;;;0.00;0.00;;;;;;;;;;5012973;28;20121;-58
2022/06/10 01:11:28;;;;;;;0.00;0.00;;;;;;;;;;5030026;28;20093;-58
2022/06/10 01:14:01;;;;;;;0.00;0.00;;;;;;;;;;5017171;28;20505;-58
2022/06/10 01:16:33;;;;;;;0.00;0.00;;;;;;;;;;5010327;28;20133;-57
2022/06/10 01:19:18;;;;;;;0.00;0.00;;;;;;;;;;5011036;28;20054;-58
2022/06/10 01:21:44;;;;;;;0.00;0.00;;;;;;;;;;5011304;28;20559;-58
2022/06/10 01:24:34;;;;;;;0.00;0.00;;;;;;;;;;5011179;28;20059;-58
2022/06/10 01:30:13;;;;;;;0.00;0.00;;;;;;;;;;5026083;28;20057;-57
2022/06/10 01:32:42;;;;;;;0.00;0.00;;;;;;;;;;5029935;28;20981;-58
2022/06/10 01:35:09;;;;;;;0.22;0.20;;;;;;;;;;5031724;28;20073;-58
2022/06/10 01:37:38;;;;;;;0.10;0.10;;;;;;;;;;5031008;28;20058;-58
2022/06/10 01:40:16;;;;;;;0.00;0.00;;;;;;;;;;5016388;28;20469;-58
2022/06/10 01:42:45;;;;;;;0.00;0.00;;;;;;;;;;5010458;28;20051;-58
2022/06/10 01:45:32;;;;;;;0.00;0.00;;;;;;;;;;5010358;28;20515;-58
2022/06/10 01:48:02;;;;;;;0.00;0.00;;;;;;;;;;5010957;28;20105;-58
2022/06/10 01:50:33;;;;;;;0.00;0.00;;;;;;;;;;5014816;28;20058;-58
2022/06/10 01:53:22;;;;;;;0.00;0.00;;;;;;;;;;5030823;28;20108;-58
2022/06/10 01:55:53;;;;;;;0.00;0.00;;;;;;;;;;5030064;28;20144;-58
2022/06/10 01:58:32;;;;;;;0.00;0.00;;;;;;;;;;5027917;28;20065;-58
2022/06/10 02:01:01;;;;;;;0.00;0.00;;;;;;;;;;5009102;28;20583;-58
2022/06/10 02:03:34;;;;;;;0.00;0.00;;;;;;;;;;5011471;28;20101;-58
2022/06/10 02:06:06;;;;;;;0.00;0.00;;;;;;;;;;5016866;28;20112;-58
2022/06/10 02:08:43;;;;;;;0.00;0.00;;;;;;;;;;5023426;28;20540;-58
2022/06/10 02:11:12;;;;;;;0.00;0.00;;;;;;;;;;5009342;28;20046;-58
2022/06/10 02:13:45;;;;;;;0.00;0.00;;;;;;;;;;5010560;28;20054;-58
2022/06/10 02:16:13;;;;;;;0.00;0.00;;;;;;;;;;5009490;28;20509;-58
2022/06/10 02:18:41;;;;;;;0.00;0.00;;;;;;;;;;5019474;28;20493;-58
2022/06/10 02:21:31;;;;;;;0.00;0.00;;;;;;;;;;5027620;28;20108;-58
2022/06/10 02:24:06;;;;;;;0.65;0.65;;;;;;;;;;5009451;28;20058;-58
2022/06/10 02:26:34;;;;;;;0.00;0.00;;;;;;;;;;5019237;28;20077;-58
2022/06/10 02:29:01;;;;;;;0.00;0.00;;;;;;;;;;5018433;28;20114;-58
2022/06/10 02:31:32;;;;;;;0.05;0.05;;;;;;;;;;5028589;28;20261;-58
2022/06/10 02:34:00;;;;;;;0.00;0.00;;;;;;;;;;5030017;28;20054;-59
2022/06/10 02:36:33;;;;;;;0.00;0.00;;;;;;;;;;5020445;28;20547;-58
2022/06/10 02:39:06;;;;;;;0.00;0.00;;;;;;;;;;5018111;28;20105;-58
2022/06/10 02:41:43;;;;;;;0.00;0.00;;;;;;;;;;5028140;28;20120;-58
2022/06/10 02:44:29;;;;;;;0.00;0.00;;;;;;;;;;5010389;28;20054;-58
2022/06/10 02:46:56;;;;;;;0.00;0.00;;;;;;;;;;5021611;28;20112;-59
2022/06/10 02:49:22;;;;;;;0.00;0.00;;;;;;;;;;5028199;28;20058;-57
2022/06/10 02:51:49;;;;;;;0.55;0.38;;;;;;;;;;5029701;28;20117;-56
2022/06/10 02:54:23;;;;;;;0.00;0.00;;;;;;;;;;5029824;28;20106;-58
2022/06/10 02:56:49;;;;;;;0.00;0.00;;;;;;;;;;5018365;28;20082;-59
2022/06/10 03:02:04;;;;;;;0.00;0.00;;;;;;;;;;5009254;28;20575;-58
2022/06/10 03:04:42;;;;;;;0.00;0.00;;;;;;;;;;5009886;28;20975;-58
2022/06/10 03:07:13;;;;;;;0.10;0.10;;;;;;;;;;5013858;28;20498;-58
2022/06/10 03:09:46;;;;;;;0.10;0.10;;;;;;;;;;5019523;28;20110;-58
2022/06/10 03:12:22;;;;;;;0.00;0.00;;;;;;;;;;5028748;28;20093;-58
2022/06/10 03:15:04;;;;;;;0.00;0.00;;;;;;;;;;5029553;28;20053;-58
2022/06/10 03:17:33;;;;;;;0.00;0.00;;;;;;;;;;5026926;28;20054;-58
2022/06/10 03:20:12;;;;;;;0.00;0.00;;;;;;;;;;5018051;28;20046;-58
2022/06/10 03:22:41;;;;;;;0.00;0.00;;;;;;;;;;5029245;28;20054;-58
2022/06/10 03:25:21;;;;;;;0.00;0.00;;;;;;;;;;5026062;28;20496;-58
2022/06/10 03:27:51;;;;;;;0.20;0.10;;;;;;;;;;5026669;28;20112;-58
2022/06/10 03:30:19;;;;;;;0.00;0.00;;;;;;;;;;5027543;28;20530;-58
2022/06/10 03:32:56;;;;;;;0.00;0.00;;;;;;;;;;5030011;28;20057;-58
2022/06/10 03:35:27;;;;;;;0.00;0.00;;;;;;;;;;5028478;28;20178;-58
2022/06/10 03:37:56;;;;;;;0.00;0.00;;;;;;;;;;5028509;28;20058;-58
2022/06/10 03:40:25;;;;;;;0.00;0.00;;;;;;;;;;5015525;28;20057;-58
2022/06/10 03:42:53;;;;;;;0.00;0.00;;;;;;;;;;5029324;28;20542;-58
2022/06/10 03:45:21;;;;;;;0.00;0.00;;;;;;;;;;5016776;28;20587;-57
2022/06/10 03:47:48;;;;;;;0.00;0.00;;;;;;;;;;5010339;28;20110;-58
2022/06/10 03:50:16;;;;;;;0.00;0.00;;;;;;;;;;5021276;28;20125;-58
2022/06/10 03:52:44;;;;;;;0.10;0.10;;;;;;;;;;5008383;28;20112;-58
2022/06/10 03:55:14;;;;;;;0.00;0.00;;;;;;;;;;5027757;28;20054;-58
2022/06/10 03:57:40;;;;;;;0.00;0.00;;;;;;;;;;5018953;28;20090;-58
2022/06/10 04:00:07;;;;;;;0.00;0.00;;;;;;;;;;5026148;28;20135;-58
2022/06/10 04:02:33;;;;;;;0.00;0.00;;;;;;;;;;5028469;28;20496;-58
2022/06/10 04:05:00;;;;;;;0.00;0.00;;;;;;;;;;5028800;28;20054;-58
2022/06/10 04:07:26;;;;;;;0.00;0.00;;;;;;;;;;5028744;28;20124;-58
2022/06/10 04:09:52;;;;;;;0.00;0.00;;;;;;;;;;5010762;28;20219;-58
2022/06/10 04:12:21;;;;;;;0.00;0.00;;;;;;;;;;5008794;28;20051;-59
2022/06/10 04:14:48;;;;;;;0.00;0.00;;;;;;;;;;5008975;28;20047;-59
2022/06/10 04:17:15;;;;;;;0.35;0.35;;;;;;;;;;5008091;28;20117;-59
2022/06/10 04:19:41;;;;;;;0.00;0.00;;;;;;;;;;5021295;28;20058;-58
2022/06/10 04:22:07;;;;;;;0.00;0.00;;;;;;;;;;5027582;28;20053;-59
2022/06/10 04:24:34;;;;;;;0.00;0.00;;;;;;;;;;5008633;28;20547;-58
2022/06/10 04:27:01;;;;;;;0.17;0.17;;;;;;;;;;5008607;28;20579;-58
2022/06/10 04:29:28;;;;;;;0.00;0.00;;;;;;;;;;5010498;28;20054;-58
2022/06/10 04:31:54;;;;;;;0.00;0.00;;;;;;;;;;5031730;28;20046;-59
2022/06/10 04:34:21;;;;;;;0.75;0.47;;;;;;;;;;5032449;28;20568;-58
2022/06/10 04:36:47;;;;;;;0.00;0.00;;;;;;;;;;5031623;28;20116;-58
2022/06/10 04:39:13;;;;;;;0.20;0.10;;;;;;;;;;5029509;28;20571;-58
2022/06/10 04:41:40;;;;;;;1.55;1.45;;;;;;;;;;5011406;28;20082;-59
2022/06/10 04:44:06;;;;;;;0.10;0.05;;;;;;;;;;5011714;28;20101;-56
2022/06/10 04:46:38;;;;;;;0.00;0.00;;;;;;;;;;5009111;28;20057;-58
2022/06/10 04:49:05;;;;;;;0.00;0.00;;;;;;;;;;5013289;28;20058;-57
2022/06/10 04:51:32;;;;;;;0.00;0.00;;;;;;;;;;5031265;28;20058;-58
2022/06/10 04:53:59;;;;;;;0.00;0.00;;;;;;;;;;5032478;28;20057;-59
2022/06/10 04:56:25;;;;;;;0.00;0.00;;;;;;;;;;5028137;28;20062;-58
2022/06/10 04:58:52;;;;;;;0.00;0.00;;;;;;;;;;5019762;28;20081;-59
2022/06/10 05:01:19;;;;;;;0.00;0.00;;;;;;;;;;5012337;28;21198;-58
2022/06/10 05:03:51;;;;;;;0.00;0.00;;;;;;;;;;5025534;28;20080;-58
2022/06/10 05:06:17;;;;;;;0.00;0.00;;;;;;;;;;5030894;28;20054;-58
2022/06/10 05:08:44;;;;;;;0.00;0.00;;;;;;;;;;5030701;28;20112;-58
2022/06/10 05:11:10;;;;;;;0.00;0.00;;;;;;;;;;5023844;28;20509;-57
2022/06/10 05:13:36;;;;;;;0.00;0.00;;;;;;;;;;5011890;28;20114;-59
2022/06/10 05:16:04;;;;;;;0.00;0.00;;;;;;;;;;5011551;28;20134;-58
2022/06/10 05:18:31;;;;;;;0.00;0.00;;;;;;;;;;5011599;28;20054;-57
2022/06/10 05:20:57;;;;;;;0.00;0.00;;;;;;;;;;5027275;28;20077;-58
2022/06/10 05:23:24;;;;;;;0.00;0.00;;;;;;;;;;5030407;28;20142;-58
2022/06/10 05:25:51;;;;;;;0.00;0.00;;;;;;;;;;5019723;28;20109;-58
2022/06/10 05:28:18;;;;;;;0.00;0.00;;;;;;;;;;5011658;28;20054;-58
2022/06/10 05:30:44;;;;;;;0.00;0.00;;;;;;;;;;5022213;28;20057;-59
2022/06/10 05:33:11;;;;;;;0.00;0.00;;;;;;;;;;5011549;28;20579;-59
2022/06/10 05:35:38;;;;;;;0.00;0.00;;;;;;;;;;5018121;28;20054;-58
2022/06/10 05:38:05;;;;;;;0.00;0.00;;;;;;;;;;5008391;28;20581;-58
2022/06/10 05:40:32;;;;;;;0.00;0.00;;;;;;;;;;5014747;28;20109;-58
2022/06/10 05:42:59;;;;;;;0.00;0.00;;;;;;;;;;5022354;28;20054;-58
2022/06/10 05:45:26;;;;;;;0.00;0.00;;;;;;;;;;5024442;28;20054;-59
2022/06/10 05:47:55;;;;;;;0.00;0.00;;;;;;;;;;5021268;28;20065;-59
2022/06/10 05:50:27;;;;;;;0.00;0.00;;;;;;;;;;5016181;28;20062;-59
2022/06/10 05:52:54;;;;;;;0.05;0.05;;;;;;;;;;5025552;28;20580;-59
2022/06/10 05:55:21;;;;;;;0.00;0.00;;;;;;;;;;5018774;28;20469;-59
2022/06/10 05:57:48;;;;;;;0.00;0.00;;;;;;;;;;5012820;28;20051;-59
2022/06/10 06:00:18;;;;;;;0.00;0.00;;;;;;;;;;5029353;28;20060;-59
2022/06/10 06:02:45;;;;;;;0.00;0.00;;;;;;;;;;5015030;28;20112;-59
2022/06/10 06:05:11;;;;;;;0.00;0.00;;;;;;;;;;5025858;28;20054;-59
2022/06/10 06:07:39;;;;;;;0.00;0.00;;;;;;;;;;5027406;28;20112;-59
2022/06/10 06:10:06;;;;;;;0.00;0.00;;;;;;;;;;5019203;28;20116;-59
2022/06/10 06:12:32;;;;;;;0.00;0.00;;;;;;;;;;5021381;28;20054;-59
2022/06/10 06:14:58;;;;;;;0.80;0.43;;;;;;;;;;5011116;28;20054;-58
2022/06/10 06:17:25;;;;;;;0.00;0.00;;;;;;;;;;5029884;28;20097;-58
2022/06/10 06:19:51;;;;;;;0.00;0.00;;;;;;;;;;5023229;28;20104;-58
2022/06/10 06:22:17;;;;;;;0.00;0.00;;;;;;;;;;5020694;28;20086;-59
2022/06/10 06:24:44;;;;;;;0.00;0.00;;;;;;;;;;5022725;28;20050;-58
2022/06/10 06:27:14;;;;;;;0.00;0.00;;;;;;;;;;5012055;28;20055;-59
2022/06/10 06:29:41;;;;;;;0.00;0.00;;;;;;;;;;5008310;28;20058;-58
2022/06/10 06:32:07;;;;;;;0.00;0.00;;;;;;;;;;5023135;28;20101;-58
2022/06/10 06:34:34;;;;;;;0.00;0.00;;;;;;;;;;5014098;28;20579;-58
2022/06/10 06:37:01;;;;;;;0.00;0.00;;;;;;;;;;5028970;28;20054;-58
2022/06/10 06:39:27;;;;;;;0.00;0.00;;;;;;;;;;5016163;28;20105;-58
2022/06/10 06:41:54;;;;;;;0.00;0.00;;;;;;;;;;5010793;28;20058;-58
2022/06/10 06:44:20;;;;;;;0.00;0.00;;;;;;;;;;5010012;28;20077;-57
2022/06/10 06:46:47;;;;;;;0.00;0.00;;;;;;;;;;5010730;28;20046;-58
2022/06/10 06:49:18;;;;;;;0.00;0.00;;;;;;;;;;5014541;28;20055;-58
2022/06/10 06:51:46;;;;;;;0.00;0.00;;;;;;;;;;5009268;28;20113;-58
2022/06/10 06:54:12;;;;;;;0.00;0.00;;;;;;;;;;5014018;28;20105;-58
2022/06/10 06:56:38;;;;;;;0.08;0.00;;;;;;;;;;5017691;28;20119;-57
2022/06/10 06:59:06;;;;;;;1.55;0.35;;;;;;;;;;5014280;28;20050;-58
2022/06/10 07:01:32;;;;;;;0.13;0.00;;;;;;;;;;5013971;28;20090;-58
2022/06/10 07:03:59;;;;;;;0.00;0.00;;;;;;;;;;5015267;28;20045;-58
2022/06/10 07:06:26;;;;;;;0.00;0.00;;;;;;;;;;5010072;28;20065;-57
2022/06/10 07:08:52;;;;;;;0.00;0.00;;;;;;;;;;5016321;28;20061;-58
2022/06/10 07:11:19;;;;;;;0.00;0.00;;;;;;;;;;5030059;28;20062;-58
2022/06/10 07:13:45;;;;;;;0.15;0.13;;;;;;;;;;5019930;28;20113;-58
2022/06/10 07:16:11;;;;;;;0.00;0.00;;;;;;;;;;5015368;28;20474;-59
2022/06/10 07:18:38;;;;;;;0.00;0.00;;;;;;;;;;5019769;28;20072;-58
2022/06/10 07:21:04;;;;;;;0.00;0.00;;;;;;;;;;5011677;28;20108;-58
2022/06/10 07:23:31;;;;;;;0.00;0.00;;;;;;;;;;5020764;28;20525;-58
2022/06/10 07:25:59;;;;;;;0.35;0.13;;;;;;;;;;5019816;28;20444;-58
2022/06/10 07:28:25;;;;;;;0.00;0.00;;;;;;;;;;5015134;28;20054;-58
2022/06/10 07:30:52;;;;;;;0.00;0.00;;;;;;;;;;5015153;28;20054;-58
2022/06/10 07:33:18;;;;;;;0.00;0.00;;;;;;;;;;5016836;28;20058;-59
2022/06/10 07:35:45;;;;;;;0.00;0.00;;;;;;;;;;5013051;28;20131;-57
2022/06/10 07:38:11;;;;;;;0.00;0.00;;;;;;;;;;5008596;28;20105;-58
2022/06/10 07:43:37;;;;;;;0.00;0.00;;;;;;;;;;5008617;28;20063;-58
2022/06/10 07:46:04;;;;;;;0.47;0.38;;;;;;;;;;5009762;28;20050;-58
2022/06/10 07:48:31;;;;;;;2.17;0.47;;;;;;;;;;5008333;28;20062;-58
2022/06/10 07:50:57;;;;;;;0.00;0.00;;;;;;;;;;5008670;28;20070;-58
2022/06/10 07:53:24;;;;;;;0.00;0.00;;;;;;;;;;5010909;28;20058;-58
2022/06/10 07:55:51;;;;;;;0.00;0.00;;;;;;;;;;5012637;28;20100;-58
2022/06/10 07:58:18;;;;;;;0.20;0.15;;;;;;;;;;5016712;28;20049;-59
2022/06/10 08:00:44;;;;;;;0.00;0.00;;;;;;;;;;5009330;28;20109;-58
2022/06/10 08:03:11;;;;;;;0.00;0.00;;;;;;;;;;5021279;28;20050;-58
2022/06/10 08:05:38;;;;;;;0.10;0.00;;;;;;;;;;5013884;28;20065;-56
2022/06/10 08:08:05;;;;;;;0.00;0.00;;;;;;;;;;5014642;28;20501;-58
2022/06/10 08:10:33;;;;;;;0.00;0.00;;;;;;;;;;5018348;28;20566;-57
2022/06/10 08:12:59;;;;;;;0.00;0.00;;;;;;;;;;5032227;28;20112;-58
2022/06/10 08:15:27;;;;;;;0.00;0.00;;;;;;;;;;5028029;28;20058;-58
2022/06/10 08:17:54;;;;;;;0.00;0.00;;;;;;;;;;5028543;28;20050;-59
2022/06/10 08:20:22;;;;;;;0.00;0.00;;;;;;;;;;5032310;28;20504;-58
2022/06/10 08:22:49;;;;;;;0.00;0.00;;;;;;;;;;5029526;28;20058;-59
2022/06/10 08:25:15;;;;;;;0.00;0.00;;;;;;;;;;5019958;28;20124;-58
2022/06/10 08:27:42;;;;;;;0.00;0.00;;;;;;;;;;5016774;28;20062;-56
2022/06/10 08:30:12;;;;;;;4.57;0.10;;;;;;;;;;5027472;28;20582;-58
2022/06/10 08:32:38;;;;;;;2.83;0.75;;;;;;;;;;5024130;28;20523;-58
2022/06/10 08:35:06;;;;;;;1.35;0.20;;;;;;;;;;5023946;28;20049;-58
2022/06/10 08:37:32;;;;;;;0.00;0.00;;;;;;;;;;5017970;28;20050;-58
2022/06/10 08:39:58;;;;;;;0.00;0.00;;;;;;;;;;5020385;28;20109;-58
2022/06/10 08:42:35;;;;;;;0.00;0.00;;;;;;;;;;5019397;28;20058;-57
2022/06/10 08:45:14;;;;;;;0.00;0.00;;;;;;;;;;5020496;28;20077;-58
2022/06/10 08:47:59;;;;;;;3.88;0.73;;;;;;;;;;5018643;28;20410;-58
2022/06/10 08:50:43;;;;;;;0.28;0.00;;;;;;;;;;5012745;28;20218;-57
2022/06/10 08:53:30;;;;;;;0.00;0.00;;;;;;;;;;5018175;28;20113;-58
2022/06/10 08:56:00;;;;;;;0.10;0.10;;;;;;;;;;5022037;28;20058;-57
2022/06/10 08:58:32;;;;;;;0.00;0.00;;;;;;;;;;5024420;28;20065;-58
2022/06/10 09:01:01;;;;;;;0.00;0.00;;;;;;;;;;5018156;28;20077;-58
2022/06/10 09:03:37;;;;;;;0.00;0.00;;;;;;;;;;5020467;28;20054;-57
2022/06/10 09:06:06;;;;;;;0.20;0.20;;;;;;;;;;5016350;28;20050;-57
2022/06/10 09:08:39;;;;;;;0.00;0.00;;;;;;;;;;5020647;28;20054;-57
2022/06/10 09:11:16;;;;;;;0.20;0.10;;;;;;;;;;5013413;28;20065;-58
2022/06/10 09:14:02;;;;;;;0.80;0.10;;;;;;;;;;5012990;28;20078;-57
2022/06/10 09:16:31;;;;;;;0.00;0.00;;;;;;;;;;5012367;28;20086;-57
2022/06/10 09:19:03;;;;;;;0.20;0.00;;;;;;;;;;5010854;28;20089;-58
2022/06/10 09:21:36;;;;;;;0.10;0.10;;;;;;;;;;5013036;28;20054;-57
2022/06/10 09:24:11;;;;;;;0.10;0.00;;;;;;;;;;5011704;28;20062;-58
2022/06/10 09:26:42;;;;;;;0.00;0.00;;;;;;;;;;5016725;28;20082;-59
2022/06/10 09:29:09;;;;;;;0.00;0.00;;;;;;;;;;5023699;28;20105;-59
2022/06/10 09:31:37;;;;;;;0.00;0.00;;;;;;;;;;5017736;28;20078;-59
2022/06/10 09:34:09;;;;;;;0.00;0.00;;;;;;;;;;5023315;28;20046;-58
2022/06/10 09:36:57;;;;;;;0.00;0.00;;;;;;;;;;5014778;28;20078;-58
2022/06/10 09:42:30;;;;;;;0.10;0.10;;;;;;;;;;5013001;28;20058;-61
2022/06/10 09:45:09;;;;;;;6.13;0.30;;;;;;;;;;5014959;28;20517;-60
2022/06/10 09:47:47;;;;;;;0.00;0.00;;;;;;;;;;5018002;28;20058;-59
2022/06/10 09:50:14;;;;;;;0.15;0.03;;;;;;;;;;5018320;28;20050;-59
2022/06/10 09:52:45;;;;;;;0.20;0.00;;;;;;;;;;5034823;28;20562;-58
2022/06/10 09:55:33;;;;;;;0.00;0.00;;;;;;;;;;5049047;28;20104;-58
2022/06/10 09:58:18;;;;;;;1.40;1.10;;;;;;;;;;5050499;28;20531;-58
2022/06/10 10:00:52;;;;;;;0.00;0.00;;;;;;;;;;5050295;28;20085;-58
2022/06/10 10:03:22;;;;;;;0.00;0.00;;;;;;;;;;5050226;28;20549;-58
2022/06/10 10:06:07;;;;;;;0.00;0.00;;;;;;;;;;5049483;28;20169;-58
2022/06/10 10:08:53;;;;;;;0.10;0.10;;;;;;;;;;5050068;28;20115;-58
2022/06/10 10:11:38;;;;;;;0.00;0.00;;;;;;;;;;5049808;28;21428;-58
2022/06/10 10:14:25;;;;;;;0.77;0.40;;;;;;;;;;5049565;28;20058;-58
2022/06/10 10:16:59;;;;;;;0.00;0.00;;;;;;;;;;5050242;28;20049;-58
2022/06/10 10:19:44;;;;;;;0.00;0.00;;;;;;;;;;5050249;28;20057;-58
2022/06/10 10:22:23;;;;;;;0.00;0.00;;;;;;;;;;5049606;28;20108;-59
2022/06/10 10:24:50;;;;;;;4.57;1.23;;;;;;;;;;5050403;28;20058;-58
2022/06/10 10:27:25;;;;;;;0.10;0.10;;;;;;;;;;5049126;28;20155;-58
2022/06/10 10:29:55;;;;;;;0.20;0.10;;;;;;;;;;5049639;28;20054;-57
2022/06/10 10:32:30;;;;;;;0.00;0.00;;;;;;;;;;5049042;28;20107;-58
2022/06/10 10:35:03;;;;;;;0.00;0.00;;;;;;;;;;5017801;28;20058;-57
2022/06/10 10:37:32;;;;;;;0.00;0.00;;;;;;;;;;5010444;28;20054;-58
2022/06/10 10:40:18;;;;;;;0.00;0.00;;;;;;;;;;5009584;28;20520;-56
2022/06/10 10:42:47;;;;;;;0.22;0.22;;;;;;;;;;5009677;28;20059;-57
2022/06/10 10:45:16;;;;;;;0.00;0.00;;;;;;;;;;5018740;28;20054;-58
2022/06/10 10:47:48;;;;;;;0.00;0.00;;;;;;;;;;5030426;28;20058;-58
2022/06/10 10:50:21;;;;;;;0.00;0.00;;;;;;;;;;5028571;28;20077;-58
2022/06/10 10:52:48;;;;;;;0.20;0.20;;;;;;;;;;5029970;28;20086;-59
2022/06/10 10:55:17;;;;;;;0.00;0.00;;;;;;;;;;5020750;28;20520;-58
2022/06/10 10:58:03;;;;;;;0.00;0.00;;;;;;;;;;5009398;28;20515;-58
2022/06/10 11:00:43;;;;;;;0.00;0.00;;;;;;;;;;5012971;28;20108;-58
2022/06/10 11:03:27;;;;;;;0.10;0.10;;;;;;;;;;5029842;28;20108;-58
2022/06/10 11:05:54;;;;;;;0.00;0.00;;;;;;;;;;5029027;28;20108;-58
2022/06/10 11:08:26;;;;;;;0.00;0.00;;;;;;;;;;5029718;28;20054;-58
2022/06/10 11:11:00;;;;;;;0.10;0.10;;;;;;;;;;5029775;28;20058;-58
2022/06/10 11:13:44;;;;;;;0.25;0.10;;;;;;;;;;5019695;28;20056;-58
2022/06/10 11:16:23;;;;;;;0.00;0.00;;;;;;;;;;5015258;28;20062;-58
2022/06/10 11:18:50;;;;;;;0.00;0.00;;;;;;;;;;5011362;28;20110;-58
2022/06/10 11:21:23;;;;;;;0.00;0.00;;;;;;;;;;5013101;28;20054;-58
2022/06/10 11:23:51;;;;;;;0.00;0.00;;;;;;;;;;5025091;28;20062;-58
2022/06/10 11:26:20;;;;;;;0.00;0.00;;;;;;;;;;5029740;28;20088;-58
2022/06/10 11:28:47;;;;;;;0.00;0.00;;;;;;;;;;5028398;28;20053;-58
2022/06/10 11:31:18;;;;;;;0.00;0.00;;;;;;;;;;5016481;28;20058;-58
2022/06/10 11:33:46;;;;;;;0.00;0.00;;;;;;;;;;5010242;28;20058;-58
2022/06/10 11:36:14;;;;;;;0.08;0.08;;;;;;;;;;5009580;28;20089;-57
2022/06/10 11:38:40;;;;;;;;;;;;;;;;;;5025501;28;20104;-58
2022/06/10 11:41:24;;;;;;;0.00;0.00;;;;;;;;;;5026950;28;45916;-58
2022/06/10 11:43:54;;;;;;;0.00;0.00;;;;;;;;;;5012120;28;20117;-59
2022/06/10 11:46:23;;;;;;;0.08;0.08;;;;;;;;;;5009144;28;20117;-57
2022/06/10 11:49:04;;;;;;;0.00;0.00;;;;;;;;;;5008668;28;20081;-58
2022/06/10 11:51:40;;;;;;;0.15;0.13;;;;;;;;;;5010351;28;20098;-58
2022/06/10 11:54:34;;;;;;;0.00;0.00;;;;;;;;;;5019742;28;20575;-58
2022/06/10 11:59:52;;;;;;;0.00;0.00;;;;;;;;;;5013722;28;20537;-58
2022/06/10 12:02:30;;;;;;;0.30;0.30;;;;;;;;;;5022346;28;20054;-58
2022/06/10 12:05:04;;;;;;;0.00;0.00;;;;;;;;;;5009709;28;20501;-58
2022/06/10 12:07:33;;;;;;;0.00;0.00;;;;;;;;;;5025356;28;20117;-58
2022/06/10 12:10:01;;;;;;;0.00;0.00;;;;;;;;;;5022762;28;20104;-58
2022/06/10 12:12:29;;;;;;;0.00;0.00;;;;;;;;;;5023206;28;20101;-58
2022/06/10 12:14:58;;;;;;;0.00;0.00;;;;;;;;;;5013843;28;20058;-58
2022/06/10 12:17:37;;;;;;;0.00;0.00;;;;;;;;;;5011819;28;20125;-58
2022/06/10 12:20:16;;;;;;;0.13;0.13;;;;;;;;;;5017230;28;20114;-58
2022/06/10 12:22:43;;;;;;;0.00;0.00;;;;;;;;;;5008340;28;20059;-58
2022/06/10 12:25:32;;;;;;;0.00;0.00;;;;;;;;;;5009230;28;20058;-58
2022/06/10 12:28:17;;;;;;;0.13;0.10;;;;;;;;;;5023556;28;20081;-58
2022/06/10 12:30:49;;;;;;;0.00;0.00;;;;;;;;;;5048687;28;20073;-58
2022/06/10 12:33:20;;;;;;;0.00;0.00;;;;;;;;;;5048387;28;20084;-59
2022/06/10 12:35:47;;;;;;;0.03;0.03;;;;;;;;;;5041603;28;20054;-59
2022/06/10 12:38:16;;;;;;;0.10;0.10;;;;;;;;;;5028007;28;20053;-59
2022/06/10 12:41:01;;;;;;;0.35;0.28;;;;;;;;;;5020167;28;20113;-58
2022/06/10 12:43:30;;;;;;;0.10;0.10;;;;;;;;;;5025896;28;20054;-58
2022/06/10 12:45:59;;;;;;;0.47;0.47;;;;;;;;;;5023868;28;20899;-56
2022/06/10 12:48:33;;;;;;;0.43;0.28;;;;;;;;;;5013506;28;20105;-59
2022/06/10 12:51:11;;;;;;;0.00;0.00;;;;;;;;;;5021088;28;20105;-58
2022/06/10 12:53:42;;;;;;;0.15;0.00;;;;;;;;;;5017515;28;20093;-58
2022/06/10 12:56:37;;;;;;;0.05;0.00;;;;;;;;;;5031997;28;20054;-58
2022/06/10 12:59:12;;;;;;;0.00;0.00;;;;;;;;;;5018742;28;20085;-58
2022/06/10 13:01:41;;;;;;;0.00;0.00;;;;;;;;;;5027079;28;20480;-58
2022/06/10 13:04:15;;;;;;;0.00;0.00;;;;;;;;;;5012234;28;20177;-58
2022/06/10 13:06:41;;;;;;;0.10;0.10;;;;;;;;;;5012253;28;20059;-58
2022/06/10 13:09:11;;;;;;;0.00;0.00;;;;;;;;;;5016878;28;20148;-58
2022/06/10 13:11:37;;;;;;;0.00;0.00;;;;;;;;;;5031277;28;20054;-59
2022/06/10 13:14:36;;;;;;;0.10;0.10;;;;;;;;;;5018084;28;20513;-58
2022/06/10 13:17:20;;;;;;;0.08;0.08;;;;;;;;;;5025386;28;20935;-58
2022/06/10 13:19:53;;;;;;;0.32;0.32;;;;;;;;;;5022294;28;20054;-58
2022/06/10 13:22:19;;;;;;;0.00;0.00;;;;;;;;;;5024790;28;20093;-58
2022/06/10 13:24:52;;;;;;;0.25;0.13;;;;;;;;;;5031544;28;20054;-57
2022/06/10 13:27:33;;;;;;;0.00;0.00;;;;;;;;;;5022330;28;20146;-58
2022/06/10 13:30:03;;;;;;;0.00;0.00;;;;;;;;;;5010327;28;20508;-57
2022/06/10 13:32:29;;;;;;;0.03;0.03;;;;;;;;;;5010018;28;20054;-58
2022/06/10 13:35:01;;;;;;;0.10;0.10;;;;;;;;;;5010197;28;20058;-58
2022/06/10 13:37:31;;;;;;;0.00;0.00;;;;;;;;;;5010962;28;20109;-58
2022/06/10 13:40:00;;;;;;;0.05;0.05;;;;;;;;;;5010507;28;20054;-58
2022/06/10 13:42:30;;;;;;;0.03;0.03;;;;;;;;;;5011187;28;20058;-58
2022/06/10 13:45:12;;;;;;;0.10;0.10;;;;;;;;;;5011275;28;20046;-58
2022/06/10 13:47:38;;;;;;;0.00;0.00;;;;;;;;;;5011485;28;20054;-58
2022/06/10 13:52:43;;;;;;;0.00;0.00;;;;;;;;;;5011004;28;20050;-57
2022/06/10 13:55:20;;;;;;;0.30;0.30;;;;;;;;;;5011098;28;20082;-58
2022/06/10 13:57:58;;;;;;;0.00;0.00;;;;;;;;;;5010060;28;20515;-58
2022/06/10 14:00:26;;;;;;;0.00;0.00;;;;;;;;;;5011169;28;20046;-58
2022/06/10 14:02:55;;;;;;;0.28;0.17;;;;;;;;;;5009772;28;20054;-58
2022/06/10 14:05:23;;;;;;;0.10;0.10;;;;;;;;;;5011307;28;20138;-58
2022/06/10 14:07:50;;;;;;;0.00;0.00;;;;;;;;;;5011359;28;20058;-57
2022/06/10 14:10:16;;;;;;;0.10;0.10;;;;;;;;;;5010760;28;20137;-57
2022/06/10 14:13:02;;;;;;;0.10;0.10;;;;;;;;;;5010907;28;20058;-58
2022/06/10 14:15:33;;;;;;;0.22;0.20;;;;;;;;;;5010799;28;20061;-58
2022/06/10 14:18:02;;;;;;;0.17;0.10;;;;;;;;;;5010942;28;20524;-57
2022/06/10 14:20:33;;;;;;;0.00;0.00;;;;;;;;;;5010446;28;20062;-58
2022/06/10 14:23:01;;;;;;;0.00;0.00;;;;;;;;;;5009159;28;20568;-57
2022/06/10 14:25:27;;;;;;;0.00;0.00;;;;;;;;;;5009731;28;20103;-58
2022/06/10 14:27:56;;;;;;;0.10;0.10;;;;;;;;;;5009259;28;20109;-58
2022/06/10 14:30:23;;;;;;;0.00;0.00;;;;;;;;;;5009479;28;20089;-58
2022/06/10 14:32:57;;;;;;;0.00;0.00;;;;;;;;;;5010044;28;20148;-58
2022/06/10 14:35:39;;;;;;;0.25;0.20;;;;;;;;;;5009354;28;20881;-58
2022/06/10 14:38:11;;;;;;;0.00;0.00;;;;;;;;;;5009162;28;20108;-58
2022/06/10 14:40:53;;;;;;;0.00;0.00;;;;;;;;;;5009212;28;20050;-58
2022/06/10 14:43:22;;;;;;;0.10;0.10;;;;;;;;;;5009608;28;20054;-57
2022/06/10 14:46:01;;;;;;;0.00;0.00;;;;;;;;;;5008878;28;20082;-57
2022/06/10 14:48:29;;;;;;;0.10;0.10;;;;;;;;;;5007815;28;20050;-56
2022/06/10 14:51:16;;;;;;;0.10;0.10;;;;;;;;;;5008586;28;20599;-58
2022/06/10 14:53:53;;;;;;;0.13;0.10;;;;;;;;;;5019951;28;20054;-57
2022/06/10 14:56:23;;;;;;;0.00;0.00;;;;;;;;;;5010583;28;20059;-58
2022/06/10 14:58:49;;;;;;;0.00;0.00;;;;;;;;;;5022117;28;20128;-59
2022/06/10 15:01:29;;;;;;;0.00;0.00;;;;;;;;;;5010732;28;20752;-59
2022/06/10 15:03:56;;;;;;;0.00;0.00;;;;;;;;;;5020319;28;20062;-59
2022/06/10 15:06:25;;;;;;;0.00;0.00;;;;;;;;;;5028089;28;20049;-58
2022/06/10 15:08:55;;;;;;;0.30;0.30;;;;;;;;;;5027420;28;20120;-59
2022/06/10 15:11:22;;;;;;;0.00;0.00;;;;;;;;;;5011761;28;20746;-59
2022/06/10 15:13:49;;;;;;;0.08;0.08;;;;;;;;;;5013603;28;20104;-59
2022/06/10 15:16:19;;;;;;;0.00;0.00;;;;;;;;;;5015471;28;20113;-58
2022/06/10 15:18:46;;;;;;;0.00;0.00;;;;;;;;;;5008532;28;20047;-59
2022/06/10 15:21:14;;;;;;;0.00;0.00;;;;;;;;;;5008874;28;20085;-58
2022/06/10 15:23:45;;;;;;;0.00;0.00;;;;;;;;;;5008625;28;20117;-59